• Join FlightAware (Why Join?)
  • Login
  • US Flag 
07:37PM EDT


 

Airport Tracker/Info


-or-


 

Live Flight TrackerFlight Track Log ✈ FLG3729 ✈ 07-Jun-2013 ✈ KALB - KDTW

Flight Track Log - Related Links

Times and Time Zones

All times are in EDT time to prevent confusion due to time zone crossing. See the FLG3729 flight status page for this flight to view local times or setup timezone preferences in your user account.

Time Position Orientation Groundspeed Altitude Reporting Facility
EDT Latitude Longitude Course Direction KTS MPH feet Rate Location/Type
05:48AM 42.7278 -73.8081 283° West 149 171 1,600  Level Boston Center
05:49AM 42.7269 -73.8675 269° West 240 276 4,400 2,340 Climbing Boston Center
05:50AM 42.7722 -73.9108 325° Northwest 258 297 6,000 2,520 Climbing Boston Center
05:51AM 42.8057 -74.1395 281° West  Level FlightAware Approximate
05:51AM 42.8339 -73.9719 324° Northwest 275 316 8,900  Level Boston Center
05:52AM 42.8225 -74.2570 281° West  Level FlightAware Approximate
05:52AM 42.9000 -74.0331 326° Northwest 280 322 10,700  Level Boston Center
05:53AM 42.8402 -74.3743 283° West  Level FlightAware Approximate
05:53AM 42.9464 -74.1333 302° West 298 343 11,600  Level Boston Center
05:54AM 42.8596 -74.4911 283° West  Level FlightAware Approximate
05:54AM 42.9653 -74.2589 282° West 327 376 12,700  Level Boston Center
05:55AM 42.9797 -74.3983 278° West 360 414 13,700 840 Climbing Boston Center
05:56AM 42.9958 -74.5381 279° West 376 433 14,400 900 Climbing Boston Center
05:57AM 43.0097 -74.6833 277° West 388 447 15,500 900 Climbing Boston Center
05:58AM 43.0222 -74.7972 279° West 388 447 16,300 900 Climbing Boston Center
05:59AM 43.0394 -74.9569 278° West 388 447 17,400 1,020 Climbing Boston Center
06:00AM 43.0550 -75.1028 278° West 388 447 18,400 960 Climbing Boston Center
06:01AM 43.0683 -75.2453 277° West 388 447 19,400 960 Climbing Boston Center
06:02AM 43.0831 -75.3997 277° West 388 447 20,400 840 Climbing Boston Center
06:03AM 43.0981 -75.5425 278° West 388 447 21,100 600 Climbing Boston Center
06:04AM 43.1128 -75.6856 278° West 388 447 21,600 480 Climbing Boston Center
06:05AM 43.1253 -75.8342 277° West 393 452 22,100 540 Climbing Boston Center
06:07AM 43.1472 -76.0611 278° West 370 426 23,000 480 Climbing Cleveland Center
06:08AM 43.1592 -76.2111 276° West 382 440 23,400 480 Climbing Cleveland Center
06:09AM 43.1481 -76.3600 264° West 388 447 24,000 540 Climbing Cleveland Center
06:10AM 43.1367 -76.5058 264° West 388 447 24,500 480 Climbing Cleveland Center
06:11AM 43.1228 -76.6492 262° West 388 447 25,000 480 Climbing Cleveland Center
06:12AM 43.1103 -76.7750 262° West 388 447 25,500 480 Climbing Cleveland Center
06:13AM 43.0983 -76.9153 263° West 388 447 26,000 480 Climbing Cleveland Center
06:14AM 43.0858 -77.0522 263° West 378 435 26,500 480 Climbing Cleveland Center
06:15AM 43.0731 -77.1867 263° West 367 422 27,000 480 Climbing Cleveland Center
06:16AM 43.0625 -77.3236 264° West 367 422 27,500 480 Climbing Cleveland Center
06:17AM 43.0494 -77.4550 262° West 367 422 28,000 240 Climbing Cleveland Center
06:18AM 43.0347 -77.6036 262° West 362 417 28,000  Level Cleveland Center
06:19AM 43.0231 -77.7261 263° West 362 417 28,000  Level Cleveland Center
06:20AM 43.0078 -77.8633 261° West 367 422 28,000  Level Cleveland Center
06:21AM 42.9944 -78.0200 263° West 377 434 28,000  Level Cleveland Center
06:22AM 42.9789 -78.1625 262° West 377 434 28,000  Level Cleveland Center
06:23AM 42.9650 -78.3050 262° West 382 440 28,000  Level Cleveland Center
06:24AM 42.9511 -78.4472 262° West 382 440 28,000  Level Cleveland Center
06:25AM 42.9369 -78.5867 262° West 387 445 28,000  Level Cleveland Center
06:26AM 42.9186 -78.7319 260° West 387 445 28,000  Level Cleveland Center
06:27AM 42.8978 -78.8714 259° West 387 445 28,000  Level Cleveland Center
06:28AM 42.8808 -79.0108 261° West 387 445 28,000  Level Cleveland Center
06:29AM 42.8578 -79.1531 258° West 392 451 28,000  Level Cleveland Center
06:30AM 42.8386 -79.2950 260° West 392 451 28,000  Level Cleveland Center
06:31AM 42.8172 -79.4397 259° West 392 451 28,000  Level Cleveland Center
06:32AM 42.7956 -79.5789 258° West 392 451 28,000  Level Cleveland Center
06:33AM 42.7739 -79.7261 259° West 392 451 28,000  Level Cleveland Center
06:34AM 42.7539 -79.8678 259° West 392 451 28,000  Level Cleveland Center
06:35AM 42.7442 -80.0036 264° West 392 451 28,000  Level Cleveland Center
06:36AM 42.7386 -80.1506 267° West 392 451 28,000  Level Cleveland Center
06:37AM 42.7308 -80.3006 266° West 392 451 28,000  Level Cleveland Center
06:38AM 42.7269 -80.4447 268° West 392 451 28,000  Level Cleveland Center
06:39AM 42.7186 -80.5944 266° West 392 451 28,000  Level Cleveland Center
06:40AM 42.7122 -80.7442 267° West 392 451 28,000 -120 Level Cleveland Center
06:41AM 42.7036 -80.9053 266° West 401 461 27,800 -900 Descending Cleveland Center
06:42AM 42.6864 -81.0578 261° West 401 461 26,200 -1,560 Descending Cleveland Center
06:43AM 42.6689 -81.2072 261° West 408 470 24,700 -1,500 Descending Cleveland Center
06:44AM 42.6536 -81.3594 262° West 415 478 23,200 -1,560 Descending Cleveland Center
06:45AM 42.6358 -81.5089 261° West 416 479 21,700 -1,500 Descending Cleveland Center
06:46AM 42.6156 -81.6581 260° West 405 466 20,200 -1,440 Descending Cleveland Center
06:47AM 42.6042 -81.7736 262° West 399 459 18,900 -1,500 Descending Cleveland Center
06:48AM 42.5836 -81.9311 260° West 393 452 17,300 -1,560 Descending Cleveland Center
06:49AM 42.5653 -82.0689 260° West 388 447 15,800 -1,620 Descending Cleveland Center
06:49AM 42.5508 -82.2008 262° West 377 434 14,400 -1,320 Descending Cleveland Center
06:51AM 42.5300 -82.3525 259° West 388 447 13,200 -1,020 Descending Cleveland Center
06:52AM 42.5153 -82.4903 262° West 388 447 12,200 -600 Descending Cleveland Center
06:53AM 42.4817 -82.6186 250° West 378 435 12,000 -120 Descending Cleveland Center
06:54AM 42.4378 -82.7383 244° Southwest 366 421 12,000  Level Cleveland Center
06:55AM 42.3939 -82.8633 245° Southwest 366 421 12,000  Level Cleveland Center
06:56AM 42.3497 -82.9853 244° Southwest 366 421 12,000  Level Cleveland Center
06:57AM 42.3053 -83.1044 243° Southwest 366 421 12,000 -120 Level Cleveland Center
06:58AM 42.2600 -83.1811 231° Southwest 303 349 11,800 -840 Descending Cleveland Center
06:59AM 42.2025 -83.2322 213° Southwest 265 305 10,400 -1,500 Descending Cleveland Center
07:00AM 42.1344 -83.2908 213° Southwest 238 274 8,600 -1,740 Descending Cleveland Center
07:01AM 42.0706 -83.3414 210° Southwest 240 276 6,600 -1,920 Descending Cleveland Center
07:02AM 42.0236 -83.3922 219° Southwest 234 269 4,800 -1,800 Descending Cleveland Center
07:03AM 42.0508 -83.4636 297° West 192 221 3,000 -900 Descending Cleveland Center
07:04AM 42.1033 -83.4547 North 181 208 2,900 -120 Descending Cleveland Center